Weather at Nuremberg Airport

Public forecast

Using degrees Celsius for public forecast. Weather courtesy of forecast.io.

Current aviation weather report (METAR) for Nuremberg Airport

2024/07/20 18:20 (retrieved 12 minutes ago)

EDDN 201820Z AUTO 11004KT 080V150 CAVOK 26/19 Q1010 NOSIG

Aviation forecast (TAF) for Nuremberg Airport

2024/07/20 18:31 (retrieved 46 seconds ago)

TAF EDDN 201700Z 2018/2118 12005KT CAVOK BECMG 2112/2114 27005KT PROB30 TEMPO 2117/2118 27020G35KT 3000 TSRA BKN050CB